| Date | Time | Temp. (oF) | Dew Point (oF) | Rel. Hum. (%) | Press. (in.) | Wind Dir. | Wind Speed (mph) | Hourly Rainfall (in.) |
|
|---|---|---|---|---|---|---|---|---|---|
| 1 | 08/01 | 00:00 | 72 | 70 | 95 | 30.16 | SSE | 1 | 0.00 |
| 2 | miss | miss | miss | miss | miss | miss | miss | miss | |
| 3 | 07/31 | 23:16 | 73 | 70 | 92 | 30.18 | S | 0 | 0.00 |
| 4 | miss | miss | miss | miss | miss | miss | miss | miss | |
| 5 | 07/31 | 23:14 | 73 | 70 | 92 | 30.18 | S | 0 | 0.00 |
| 6 | miss | miss | miss | miss | miss | miss | miss | miss | |
| 7 | 07/31 | 23:12 | 73 | 70 | 92 | 30.18 | S | 0 | 0.00 |
| 8 | miss | miss | miss | miss | miss | miss | miss | miss | |
| 9 | 07/31 | 23:10 | 73 | 70 | 92 | 30.18 | S | 2 | 0.00 |
| 10 | miss | miss | miss | miss | miss | miss | miss | miss | |
| 11 | 07/31 | 23:08 | 73 | 70 | 92 | 30.18 | SSE | 2 | 0.00 |
| 12 | miss | miss | miss | miss | miss | miss | miss | miss | |
| 13 | 07/31 | 23:06 | 73 | 70 | 92 | 30.18 | SSE | 2 | 0.00 |
| 14 | miss | miss | miss | miss | miss | miss | miss | miss | |
| 15 | 07/31 | 23:04 | 73 | 70 | 91 | 30.18 | S | 2 | 0.00 |
| 16 | miss | miss | miss | miss | miss | miss | miss | miss | |
| 17 | 07/31 | 23:02 | 73 | 70 | 91 | 30.18 | S | 2 | 0.00 |
| 18 | miss | miss | miss | miss | miss | miss | miss | miss | |
| 19 | 07/31 | 23:00 | 73 | 70 | 91 | 30.18 | S | 1 | 0.00 |
| 20 | 07/31 | 22:59 | 73 | 70 | 91 | 30.18 | S | 1 | 0.00 |
| 21 | 07/31 | 22:58 | 73 | 70 | 91 | 30.18 | S | 1 | 0.00 |
| 22 | 07/31 | 22:57 | 73 | 70 | 91 | 30.18 | S | 1 | 0.00 |
| 23 | 07/31 | 22:56 | 73 | 70 | 91 | 30.18 | S | 1 | 0.00 |
| 24 | 07/31 | 22:55 | 73 | 70 | 91 | 30.19 | S | 1 | 0.00 |
| 25 | miss | miss | miss | miss | miss | miss | miss | miss | |
| 26 | 07/31 | 22:54 | 73 | 70 | 91 | 30.19 | S | 1 | 0.00 |
| 27 | 07/31 | 22:00 | 75 | 69 | 84 | 30.19 | S | 0 | 0.00 |
| 28 | 07/31 | 21:00 | 77 | 71 | 82 | 30.17 | S | 1 | 0.00 |
| 29 | 07/31 | 20:00 | 79 | 70 | 75 | 30.17 | SSW | 3 | 0.00 |
| 30 | 07/31 | 19:00 | 80 | 69 | 71 | 30.16 | S | 5 | 0.00 |
| 31 | 07/31 | 18:00 | 82 | 70 | 68 | 30.15 | S | 4 | 0.00 |
| 32 | 07/31 | 17:00 | 81 | 69 | 69 | 30.17 | SSW | 5 | 0.00 |
| 33 | 07/31 | 16:00 | 82 | 69 | 67 | 30.19 | S | 7 | 0.00 |
| 34 | 07/31 | 15:00 | 82 | 71 | 71 | 30.21 | S | 3 | 0.00 |
| 35 | 07/31 | 14:00 | 82 | 69 | 67 | 30.21 | SSW | 3 | 0.00 |
| 36 | 07/31 | 13:00 | 82 | 70 | 68 | 30.22 | S | 6 | 0.00 |
| 37 | 07/31 | 12:00 | 83 | 70 | 67 | 30.23 | ESE | 8 | 0.00 |
| 38 | 07/31 | 11:00 | 81 | 70 | 70 | 30.23 | NE | 5 | 0.00 |
| 39 | 07/31 | 10:00 | 77 | 73 | 88 | 30.24 | SE | 5 | 0.00 |
| 40 | 07/31 | 09:00 | 72 | 72 | 100 | 30.25 | ESE | 0 | 0.00 |
| 41 | 07/31 | 08:00 | 69 | 68 | 100 | 30.25 | ESE | 0 | 0.00 |
| 42 | 07/31 | 07:00 | 68 | 68 | 100 | 30.25 | NE | 2 | 0.00 |
| 43 | 07/31 | 06:00 | 68 | 68 | 100 | 30.25 | NNW | 0 | 0.00 |
| 44 | 07/31 | 05:00 | 68 | 67 | 99 | 30.23 | SSE | 0 | 0.00 |
| 45 | 07/31 | 04:00 | 69 | 68 | 99 | 30.22 | SSE | 0 | 0.00 |
| 46 | 07/31 | 03:00 | 70 | 69 | 98 | 30.23 | S | 0 | 0.00 |
| 47 | 07/31 | 02:00 | 71 | 70 | 97 | 30.24 | S | 0 | 0.00 |
| 48 | 07/31 | 01:00 | 72 | 70 | 96 | 30.24 | S | 0 | 0.00 |
| 49 | 07/31 | 00:00 | 73 | 70 | 93 | 30.23 | S | 0 | 0.00 |
| 50 | 07/30 | 23:00 | 74 | 70 | 89 | 30.23 | S | 0 | 0.00 |
| 51 | 07/30 | 22:00 | 76 | 71 | 87 | 30.22 | S | 0 | 0.00 |
| 52 | 07/30 | 21:00 | 77 | 71 | 83 | 30.20 | SSE | 3 | 0.00 |
| 53 | 07/30 | 20:00 | 79 | 71 | 79 | 30.20 | S | 4 | 0.00 |
| 54 | 07/30 | 19:00 | 81 | 72 | 75 | 30.20 | S | 4 | 0.00 |
| 55 | 07/30 | 18:00 | 83 | 73 | 73 | 30.18 | S | 13 | 0.00 |
| 56 | 07/30 | 17:00 | 86 | 67 | 55 | 30.18 | ESE | 4 | 0.00 |
| 57 | 07/30 | 16:00 | 86 | 68 | 56 | 30.18 | SSE | 4 | 0.00 |
| 58 | 07/30 | 15:00 | 86 | 70 | 60 | 30.20 | E | 1 | 0.00 |
| 59 | 07/30 | 14:00 | 87 | 72 | 63 | 30.21 | SSE | 3 | 0.00 |
| 60 | 07/30 | 13:00 | 84 | 71 | 67 | 30.22 | E | 1 | 0.00 |
| 61 | 07/30 | 12:00 | 83 | 72 | 72 | 30.24 | ESE | 5 | 0.00 |
| 62 | 07/30 | 11:00 | 82 | 74 | 77 | 30.24 | E | 3 | 0.00 |
| 63 | 07/30 | 10:00 | 78 | 74 | 88 | 30.24 | SSW | 1 | 0.00 |
| 64 | 07/30 | 09:00 | 75 | 75 | 100 | 30.24 | SE | 2 | 0.00 |
| 65 | 07/30 | 08:00 | 71 | 71 | 100 | 30.23 | NE | 1 | 0.00 |
| 66 | 07/30 | 07:00 | 70 | 69 | 100 | 30.22 | ESE | 2 | 0.00 |
| 67 | 07/30 | 06:00 | 70 | 69 | 100 | 30.20 | NE | 0 | 0.00 |
| 68 | 07/30 | 05:00 | 71 | 71 | 100 | 30.18 | N | 0 | 0.00 |
| 69 | 07/30 | 04:00 | 70 | 69 | 100 | 30.18 | NNW | 0 | 0.00 |
| 70 | 07/30 | 03:00 | 70 | 69 | 99 | 30.18 | NNE | 0 | 0.00 |
| 71 | 07/30 | 02:00 | 71 | 70 | 99 | 30.18 | NNE | 0 | 0.00 |
| 72 | 07/30 | 01:00 | 71 | 69 | 96 | 30.19 | ESE | 0 | 0.00 |
| 73 | 07/30 | 00:00 | 72 | 70 | 94 | 30.18 | ESE | 0 | 0.00 |